sensor_id;sensor_type;location;lat;lon;timestamp;temperature;humidity
27667;DHT22;15074;50.940;5.282;2022-10-16T00:00:23;13.90;99.90
27667;DHT22;15074;50.940;5.282;2022-10-16T00:02:48;13.90;99.90
27667;DHT22;15074;50.940;5.282;2022-10-16T00:05:14;13.90;99.90
27667;DHT22;15074;50.940;5.282;2022-10-16T00:07:40;14.00;99.90
27667;DHT22;15074;50.940;5.282;2022-10-16T00:10:06;14.00;99.90
27667;DHT22;15074;50.940;5.282;2022-10-16T00:12:32;13.70;99.90
27667;DHT22;15074;50.940;5.282;2022-10-16T00:14:57;13.60;99.90
27667;DHT22;15074;50.940;5.282;2022-10-16T00:17:23;13.50;99.90
27667;DHT22;15074;50.940;5.282;2022-10-16T00:19:49;13.50;99.90
27667;DHT22;15074;50.940;5.282;2022-10-16T00:22:14;13.50;99.90
27667;DHT22;15074;50.940;5.282;2022-10-16T00:24:40;13.50;99.90
27667;DHT22;15074;50.940;5.282;2022-10-16T00:27:05;13.60;99.90
27667;DHT22;15074;50.940;5.282;2022-10-16T00:29:31;13.50;99.90
27667;DHT22;15074;50.940;5.282;2022-10-16T00:31:56;13.50;99.90
27667;DHT22;15074;50.940;5.282;2022-10-16T00:34:22;13.40;99.90
27667;DHT22;15074;50.940;5.282;2022-10-16T00:36:47;13.40;99.90
27667;DHT22;15074;50.940;5.282;2022-10-16T00:39:13;13.40;99.90
27667;DHT22;15074;50.940;5.282;2022-10-16T00:41:38;13.50;99.90
27667;DHT22;15074;50.940;5.282;2022-10-16T00:44:43;13.50;99.90
27667;DHT22;15074;50.940;5.282;2022-10-16T00:47:11;13.40;99.90
27667;DHT22;15074;50.940;5.282;2022-10-16T00:49:38;13.40;99.90
27667;DHT22;15074;50.940;5.282;2022-10-16T00:52:04;13.30;99.90
27667;DHT22;15074;50.940;5.282;2022-10-16T00:54:31;13.40;99.90
27667;DHT22;15074;50.940;5.282;2022-10-16T00:57:00;13.40;99.90
27667;DHT22;15074;50.940;5.282;2022-10-16T00:59:30;13.30;99.90
27667;DHT22;15074;50.940;5.282;2022-10-16T01:01:57;13.30;99.90
27667;DHT22;15074;50.940;5.282;2022-10-16T01:04:24;13.30;99.90
27667;DHT22;15074;50.940;5.282;2022-10-16T01:07:14;13.30;99.90
27667;DHT22;15074;50.940;5.282;2022-10-16T01:12:46;13.20;99.90
27667;DHT22;15074;50.940;5.282;2022-10-16T01:15:25;13.20;99.90
27667;DHT22;15074;50.940;5.282;2022-10-16T01:18:08;13.20;99.90
27667;DHT22;15074;50.940;5.282;2022-10-16T01:20:47;13.10;99.90
27667;DHT22;15074;50.940;5.282;2022-10-16T01:23:23;13.10;99.90
27667;DHT22;15074;50.940;5.282;2022-10-16T01:28:55;13.00;99.90
27667;DHT22;15074;50.940;5.282;2022-10-16T01:31:25;12.90;99.90
27667;DHT22;15074;50.940;5.282;2022-10-16T01:34:05;13.00;99.90
27667;DHT22;15074;50.940;5.282;2022-10-16T01:36:39;13.00;99.90
27667;DHT22;15074;50.940;5.282;2022-10-16T01:39:07;13.00;99.90
27667;DHT22;15074;50.940;5.282;2022-10-16T01:41:38;13.00;99.90
27667;DHT22;15074;50.940;5.282;2022-10-16T01:46:35;13.00;99.90
27667;DHT22;15074;50.940;5.282;2022-10-16T01:49:02;13.00;99.90
27667;DHT22;15074;50.940;5.282;2022-10-16T01:51:29;13.10;99.90
27667;DHT22;15074;50.940;5.282;2022-10-16T01:53:57;13.20;99.90
27667;DHT22;15074;50.940;5.282;2022-10-16T01:56:25;13.20;99.90
27667;DHT22;15074;50.940;5.282;2022-10-16T01:59:21;13.20;99.90
27667;DHT22;15074;50.940;5.282;2022-10-16T02:01:52;13.20;99.90
27667;DHT22;15074;50.940;5.282;2022-10-16T02:04:28;13.10;99.90
27667;DHT22;15074;50.940;5.282;2022-10-16T02:06:54;13.00;99.90
27667;DHT22;15074;50.940;5.282;2022-10-16T02:09:20;12.90;99.90
27667;DHT22;15074;50.940;5.282;2022-10-16T02:11:46;12.90;99.90
27667;DHT22;15074;50.940;5.282;2022-10-16T02:14:14;13.00;99.90
27667;DHT22;15074;50.940;5.282;2022-10-16T02:16:43;13.00;99.90
27667;DHT22;15074;50.940;5.282;2022-10-16T02:19:09;13.00;99.90
27667;DHT22;15074;50.940;5.282;2022-10-16T02:21:40;13.00;99.90
27667;DHT22;15074;50.940;5.282;2022-10-16T02:26:56;13.10;99.90
27667;DHT22;15074;50.940;5.282;2022-10-16T02:29:25;13.00;99.90
27667;DHT22;15074;50.940;5.282;2022-10-16T02:31:56;13.10;99.90
27667;DHT22;15074;50.940;5.282;2022-10-16T02:34:24;13.00;99.90
27667;DHT22;15074;50.940;5.282;2022-10-16T02:36:51;13.00;99.90
27667;DHT22;15074;50.940;5.282;2022-10-16T02:39:19;13.00;99.90
27667;DHT22;15074;50.940;5.282;2022-10-16T02:41:45;13.00;99.90
27667;DHT22;15074;50.940;5.282;2022-10-16T02:44:11;13.00;99.90
27667;DHT22;15074;50.940;5.282;2022-10-16T02:46:37;13.00;99.90
27667;DHT22;15074;50.940;5.282;2022-10-16T02:49:02;13.00;99.90
27667;DHT22;15074;50.940;5.282;2022-10-16T02:51:28;13.00;99.90
27667;DHT22;15074;50.940;5.282;2022-10-16T02:53:53;13.00;99.90
27667;DHT22;15074;50.940;5.282;2022-10-16T02:56:19;13.10;99.90
27667;DHT22;15074;50.940;5.282;2022-10-16T02:58:45;13.10;99.90
27667;DHT22;15074;50.940;5.282;2022-10-16T03:01:10;13.10;99.90
27667;DHT22;15074;50.940;5.282;2022-10-16T03:03:38;13.10;99.90
27667;DHT22;15074;50.940;5.282;2022-10-16T03:06:04;13.10;99.90
27667;DHT22;15074;50.940;5.282;2022-10-16T03:08:29;13.00;99.90
27667;DHT22;15074;50.940;5.282;2022-10-16T03:10:55;13.00;99.90
27667;DHT22;15074;50.940;5.282;2022-10-16T03:13:21;12.90;99.90
27667;DHT22;15074;50.940;5.282;2022-10-16T03:15:47;12.90;99.90
27667;DHT22;15074;50.940;5.282;2022-10-16T03:18:12;12.90;99.90
27667;DHT22;15074;50.940;5.282;2022-10-16T03:20:38;12.90;99.90
27667;DHT22;15074;50.940;5.282;2022-10-16T03:23:03;12.90;99.90
27667;DHT22;15074;50.940;5.282;2022-10-16T03:25:29;12.90;99.90
27667;DHT22;15074;50.940;5.282;2022-10-16T03:27:55;12.80;99.90
27667;DHT22;15074;50.940;5.282;2022-10-16T03:30:20;12.80;99.90
27667;DHT22;15074;50.940;5.282;2022-10-16T03:32:46;12.80;99.90
27667;DHT22;15074;50.940;5.282;2022-10-16T03:35:12;12.90;99.90
27667;DHT22;15074;50.940;5.282;2022-10-16T03:37:38;13.00;99.90
27667;DHT22;15074;50.940;5.282;2022-10-16T03:40:04;12.90;99.90
27667;DHT22;15074;50.940;5.282;2022-10-16T03:42:30;12.90;99.90
27667;DHT22;15074;50.940;5.282;2022-10-16T03:44:55;12.90;99.90
27667;DHT22;15074;50.940;5.282;2022-10-16T03:47:21;12.90;99.90
27667;DHT22;15074;50.940;5.282;2022-10-16T03:49:49;12.90;99.90
27667;DHT22;15074;50.940;5.282;2022-10-16T03:52:14;12.90;99.90
27667;DHT22;15074;50.940;5.282;2022-10-16T03:54:40;12.80;99.90
27667;DHT22;15074;50.940;5.282;2022-10-16T03:57:05;12.80;99.90
27667;DHT22;15074;50.940;5.282;2022-10-16T03:59:31;12.70;99.90
27667;DHT22;15074;50.940;5.282;2022-10-16T04:01:57;12.70;99.90
27667;DHT22;15074;50.940;5.282;2022-10-16T04:04:22;12.70;99.90
27667;DHT22;15074;50.940;5.282;2022-10-16T04:06:48;12.70;99.90
27667;DHT22;15074;50.940;5.282;2022-10-16T04:09:13;12.70;99.90
27667;DHT22;15074;50.940;5.282;2022-10-16T04:11:39;12.80;99.90
27667;DHT22;15074;50.940;5.282;2022-10-16T04:14:04;12.70;99.90
27667;DHT22;15074;50.940;5.282;2022-10-16T04:16:30;12.70;99.90
27667;DHT22;15074;50.940;5.282;2022-10-16T04:18:56;12.70;99.90
27667;DHT22;15074;50.940;5.282;2022-10-16T04:21:21;12.70;99.90
27667;DHT22;15074;50.940;5.282;2022-10-16T04:23:48;12.70;99.90
27667;DHT22;15074;50.940;5.282;2022-10-16T04:26:13;12.70;99.90
27667;DHT22;15074;50.940;5.282;2022-10-16T04:28:39;12.80;99.90
27667;DHT22;15074;50.940;5.282;2022-10-16T04:31:06;12.70;99.90
27667;DHT22;15074;50.940;5.282;2022-10-16T04:33:32;12.80;99.90
27667;DHT22;15074;50.940;5.282;2022-10-16T04:35:59;12.80;99.90
27667;DHT22;15074;50.940;5.282;2022-10-16T04:38:25;12.80;99.90
27667;DHT22;15074;50.940;5.282;2022-10-16T04:40:51;12.80;99.90
27667;DHT22;15074;50.940;5.282;2022-10-16T04:43:17;12.90;99.90
27667;DHT22;15074;50.940;5.282;2022-10-16T04:45:43;12.80;99.90
27667;DHT22;15074;50.940;5.282;2022-10-16T04:48:09;12.90;99.90
27667;DHT22;15074;50.940;5.282;2022-10-16T04:50:34;12.80;99.90
27667;DHT22;15074;50.940;5.282;2022-10-16T04:53:00;12.90;99.90
27667;DHT22;15074;50.940;5.282;2022-10-16T04:55:26;12.80;99.90
27667;DHT22;15074;50.940;5.282;2022-10-16T04:57:51;12.80;99.90
27667;DHT22;15074;50.940;5.282;2022-10-16T05:00:17;12.90;99.90
27667;DHT22;15074;50.940;5.282;2022-10-16T05:02:43;12.80;99.90
27667;DHT22;15074;50.940;5.282;2022-10-16T05:05:08;12.80;99.90
27667;DHT22;15074;50.940;5.282;2022-10-16T05:07:34;12.80;99.90
27667;DHT22;15074;50.940;5.282;2022-10-16T05:10:00;12.90;99.90
27667;DHT22;15074;50.940;5.282;2022-10-16T05:12:25;12.90;99.90
27667;DHT22;15074;50.940;5.282;2022-10-16T05:14:51;12.90;99.90
27667;DHT22;15074;50.940;5.282;2022-10-16T05:17:16;12.90;99.90
27667;DHT22;15074;50.940;5.282;2022-10-16T05:19:42;12.90;99.90
27667;DHT22;15074;50.940;5.282;2022-10-16T05:22:07;12.90;99.90
27667;DHT22;15074;50.940;5.282;2022-10-16T05:24:33;12.80;99.90
27667;DHT22;15074;50.940;5.282;2022-10-16T05:26:59;12.80;99.90
27667;DHT22;15074;50.940;5.282;2022-10-16T05:29:24;12.80;99.90
27667;DHT22;15074;50.940;5.282;2022-10-16T05:31:53;12.90;99.90
27667;DHT22;15074;50.940;5.282;2022-10-16T05:34:19;12.80;99.90
27667;DHT22;15074;50.940;5.282;2022-10-16T05:36:45;12.90;99.90
27667;DHT22;15074;50.940;5.282;2022-10-16T05:39:11;12.80;99.90
27667;DHT22;15074;50.940;5.282;2022-10-16T05:41:37;12.90;99.90
27667;DHT22;15074;50.940;5.282;2022-10-16T05:44:05;12.90;99.90
27667;DHT22;15074;50.940;5.282;2022-10-16T05:46:32;12.80;99.90
27667;DHT22;15074;50.940;5.282;2022-10-16T05:48:58;12.80;99.90
27667;DHT22;15074;50.940;5.282;2022-10-16T05:51:24;12.90;99.90
27667;DHT22;15074;50.940;5.282;2022-10-16T05:53:50;12.80;99.90
27667;DHT22;15074;50.940;5.282;2022-10-16T05:56:15;12.90;99.90
27667;DHT22;15074;50.940;5.282;2022-10-16T05:58:41;12.80;99.90
27667;DHT22;15074;50.940;5.282;2022-10-16T06:01:11;12.90;99.90
27667;DHT22;15074;50.940;5.282;2022-10-16T06:03:37;12.80;99.90
27667;DHT22;15074;50.940;5.282;2022-10-16T06:06:13;12.80;99.90
27667;DHT22;15074;50.940;5.282;2022-10-16T06:08:39;12.80;99.90
27667;DHT22;15074;50.940;5.282;2022-10-16T06:11:07;12.80;99.90
27667;DHT22;15074;50.940;5.282;2022-10-16T06:13:34;12.80;99.90
27667;DHT22;15074;50.940;5.282;2022-10-16T06:16:00;12.70;99.90
27667;DHT22;15074;50.940;5.282;2022-10-16T06:18:27;12.70;99.90
27667;DHT22;15074;50.940;5.282;2022-10-16T06:20:54;12.80;99.90
27667;DHT22;15074;50.940;5.282;2022-10-16T06:23:20;12.80;99.90
27667;DHT22;15074;50.940;5.282;2022-10-16T06:25:46;12.90;99.90
27667;DHT22;15074;50.940;5.282;2022-10-16T06:28:14;12.80;99.90
27667;DHT22;15074;50.940;5.282;2022-10-16T06:30:39;12.80;99.90
27667;DHT22;15074;50.940;5.282;2022-10-16T06:33:05;12.80;99.90
27667;DHT22;15074;50.940;5.282;2022-10-16T06:35:31;12.80;99.90
27667;DHT22;15074;50.940;5.282;2022-10-16T06:37:57;12.80;99.90
27667;DHT22;15074;50.940;5.282;2022-10-16T06:40:23;12.80;99.90
27667;DHT22;15074;50.940;5.282;2022-10-16T06:42:49;12.70;99.90
27667;DHT22;15074;50.940;5.282;2022-10-16T06:45:14;12.80;99.90
27667;DHT22;15074;50.940;5.282;2022-10-16T06:47:40;12.90;99.90
27667;DHT22;15074;50.940;5.282;2022-10-16T06:50:06;12.90;99.90
27667;DHT22;15074;50.940;5.282;2022-10-16T06:52:33;12.90;99.90
27667;DHT22;15074;50.940;5.282;2022-10-16T06:54:59;12.90;99.90
27667;DHT22;15074;50.940;5.282;2022-10-16T06:57:24;13.00;99.90
27667;DHT22;15074;50.940;5.282;2022-10-16T06:59:50;12.90;99.90
27667;DHT22;15074;50.940;5.282;2022-10-16T07:02:15;13.10;99.90
27667;DHT22;15074;50.940;5.282;2022-10-16T07:04:41;13.40;99.90
27667;DHT22;15074;50.940;5.282;2022-10-16T07:07:07;13.60;99.90
27667;DHT22;15074;50.940;5.282;2022-10-16T07:09:32;13.60;99.90
27667;DHT22;15074;50.940;5.282;2022-10-16T07:11:58;13.60;99.90
27667;DHT22;15074;50.940;5.282;2022-10-16T07:14:24;13.80;99.90
27667;DHT22;15074;50.940;5.282;2022-10-16T07:16:50;13.80;99.90
27667;DHT22;15074;50.940;5.282;2022-10-16T07:19:16;13.80;99.90
27667;DHT22;15074;50.940;5.282;2022-10-16T07:21:43;13.90;99.90
27667;DHT22;15074;50.940;5.282;2022-10-16T07:24:15;14.10;99.90
27667;DHT22;15074;50.940;5.282;2022-10-16T07:26:43;14.30;99.90
27667;DHT22;15074;50.940;5.282;2022-10-16T07:29:15;14.50;99.90
27667;DHT22;15074;50.940;5.282;2022-10-16T07:31:42;14.60;99.90
27667;DHT22;15074;50.940;5.282;2022-10-16T07:34:07;14.80;99.90
27667;DHT22;15074;50.940;5.282;2022-10-16T07:36:33;15.90;99.90
27667;DHT22;15074;50.940;5.282;2022-10-16T07:38:59;17.60;99.90
27667;DHT22;15074;50.940;5.282;2022-10-16T07:41:25;18.80;99.90
27667;DHT22;15074;50.940;5.282;2022-10-16T07:43:52;20.20;99.90
27667;DHT22;15074;50.940;5.282;2022-10-16T07:46:21;20.70;99.90
27667;DHT22;15074;50.940;5.282;2022-10-16T07:48:48;21.10;99.90
27667;DHT22;15074;50.940;5.282;2022-10-16T07:51:16;21.70;99.90
27667;DHT22;15074;50.940;5.282;2022-10-16T07:53:42;21.80;99.90
27667;DHT22;15074;50.940;5.282;2022-10-16T07:56:08;21.90;99.90
27667;DHT22;15074;50.940;5.282;2022-10-16T07:58:34;22.00;99.90
27667;DHT22;15074;50.940;5.282;2022-10-16T08:01:09;22.00;99.90
27667;DHT22;15074;50.940;5.282;2022-10-16T08:03:35;22.40;99.90
27667;DHT22;15074;50.940;5.282;2022-10-16T08:06:01;22.80;99.90
27667;DHT22;15074;50.940;5.282;2022-10-16T08:08:27;22.60;99.90
27667;DHT22;15074;50.940;5.282;2022-10-16T08:10:53;23.40;99.90
27667;DHT22;15074;50.940;5.282;2022-10-16T08:13:19;22.20;99.90
27667;DHT22;15074;50.940;5.282;2022-10-16T08:15:45;20.60;99.90
27667;DHT22;15074;50.940;5.282;2022-10-16T08:18:13;20.00;99.90
27667;DHT22;15074;50.940;5.282;2022-10-16T08:20:39;20.60;99.90
27667;DHT22;15074;50.940;5.282;2022-10-16T08:23:05;21.50;99.90
27667;DHT22;15074;50.940;5.282;2022-10-16T08:25:34;22.50;99.90
27667;DHT22;15074;50.940;5.282;2022-10-16T08:28:00;23.20;99.90
27667;DHT22;15074;50.940;5.282;2022-10-16T08:30:28;22.80;99.90
27667;DHT22;15074;50.940;5.282;2022-10-16T08:32:57;23.40;99.90
27667;DHT22;15074;50.940;5.282;2022-10-16T08:35:23;23.00;99.90
27667;DHT22;15074;50.940;5.282;2022-10-16T08:37:49;23.70;99.90
27667;DHT22;15074;50.940;5.282;2022-10-16T08:50:45;24.80;99.90
27667;DHT22;15074;50.940;5.282;2022-10-16T08:53:22;25.10;99.90
27667;DHT22;15074;50.940;5.282;2022-10-16T08:55:51;24.50;99.90
27667;DHT22;15074;50.940;5.282;2022-10-16T08:58:27;24.20;99.90
27667;DHT22;15074;50.940;5.282;2022-10-16T09:00:55;24.40;99.90
27667;DHT22;15074;50.940;5.282;2022-10-16T09:20:34;25.80;99.90
27667;DHT22;15074;50.940;5.282;2022-10-16T09:25:31;26.40;99.90
27667;DHT22;15074;50.940;5.282;2022-10-16T09:27:58;26.50;99.90
27667;DHT22;15074;50.940;5.282;2022-10-16T09:30:27;25.60;99.90
27667;DHT22;15074;50.940;5.282;2022-10-16T09:32:54;26.20;99.90
27667;DHT22;15074;50.940;5.282;2022-10-16T09:35:22;26.20;99.90
27667;DHT22;15074;50.940;5.282;2022-10-16T09:37:51;25.80;99.90
27667;DHT22;15074;50.940;5.282;2022-10-16T09:43:23;25.50;99.90
27667;DHT22;15074;50.940;5.282;2022-10-16T09:45:58;25.60;99.90
27667;DHT22;15074;50.940;5.282;2022-10-16T09:48:27;26.20;99.90
27667;DHT22;15074;50.940;5.282;2022-10-16T09:50:58;25.80;99.90
27667;DHT22;15074;50.940;5.282;2022-10-16T09:53:24;25.50;99.90
27667;DHT22;15074;50.940;5.282;2022-10-16T09:55:52;23.80;99.90
27667;DHT22;15074;50.940;5.282;2022-10-16T09:58:22;23.40;99.90
27667;DHT22;15074;50.940;5.282;2022-10-16T10:00:53;23.80;99.90
27667;DHT22;15074;50.940;5.282;2022-10-16T10:03:37;24.40;99.90
27667;DHT22;15074;50.940;5.282;2022-10-16T10:06:17;25.40;99.90
27667;DHT22;15074;50.940;5.282;2022-10-16T10:09:02;26.70;99.90
27667;DHT22;15074;50.940;5.282;2022-10-16T10:14:32;28.10;99.90
27667;DHT22;15074;50.940;5.282;2022-10-16T10:17:23;26.20;99.90
27667;DHT22;15074;50.940;5.282;2022-10-16T10:20:35;24.80;99.90
27667;DHT22;15074;50.940;5.282;2022-10-16T10:22:41;25.40;99.90
27667;DHT22;15074;50.940;5.282;2022-10-16T10:33:21;25.80;99.90
27667;DHT22;15074;50.940;5.282;2022-10-16T10:46:20;26.20;99.90
27667;DHT22;15074;50.940;5.282;2022-10-16T10:57:21;26.70;99.90
27667;DHT22;15074;50.940;5.282;2022-10-16T11:07:45;26.30;99.90
27667;DHT22;15074;50.940;5.282;2022-10-16T11:10:24;26.20;99.90
27667;DHT22;15074;50.940;5.282;2022-10-16T11:12:56;26.20;99.90
27667;DHT22;15074;50.940;5.282;2022-10-16T11:15:33;25.30;99.90
27667;DHT22;15074;50.940;5.282;2022-10-16T11:18:07;24.40;99.90
27667;DHT22;15074;50.940;5.282;2022-10-16T11:20:47;23.90;99.90
27667;DHT22;15074;50.940;5.282;2022-10-16T11:26:05;25.70;99.90
27667;DHT22;15074;50.940;5.282;2022-10-16T11:28:42;26.50;99.90
27667;DHT22;15074;50.940;5.282;2022-10-16T11:31:17;25.90;99.90
27667;DHT22;15074;50.940;5.282;2022-10-16T11:34:03;25.60;99.90
27667;DHT22;15074;50.940;5.282;2022-10-16T11:36:35;25.70;99.90
27667;DHT22;15074;50.940;5.282;2022-10-16T11:39:25;24.70;99.90
27667;DHT22;15074;50.940;5.282;2022-10-16T11:42:13;23.80;99.90
27667;DHT22;15074;50.940;5.282;2022-10-16T11:45:07;22.70;99.90
27667;DHT22;15074;50.940;5.282;2022-10-16T11:47:40;22.60;99.90
27667;DHT22;15074;50.940;5.282;2022-10-16T11:50:17;22.50;99.90
27667;DHT22;15074;50.940;5.282;2022-10-16T11:55:38;23.60;99.90
27667;DHT22;15074;50.940;5.282;2022-10-16T12:09:37;22.30;99.90
27667;DHT22;15074;50.940;5.282;2022-10-16T12:12:04;22.10;99.90
27667;DHT22;15074;50.940;5.282;2022-10-16T12:14:35;21.80;99.90
27667;DHT22;15074;50.940;5.282;2022-10-16T12:17:37;21.60;99.90
27667;DHT22;15074;50.940;5.282;2022-10-16T12:20:20;21.70;99.90
27667;DHT22;15074;50.940;5.282;2022-10-16T12:23:00;21.00;99.90
27667;DHT22;15074;50.940;5.282;2022-10-16T12:25:34;21.10;99.90
27667;DHT22;15074;50.940;5.282;2022-10-16T12:30:31;20.70;99.90
27667;DHT22;15074;50.940;5.282;2022-10-16T12:33:00;21.10;99.90
27667;DHT22;15074;50.940;5.282;2022-10-16T12:35:31;21.50;99.90
27667;DHT22;15074;50.940;5.282;2022-10-16T12:38:27;22.00;99.90
27667;DHT22;15074;50.940;5.282;2022-10-16T12:41:07;22.60;99.90
27667;DHT22;15074;50.940;5.282;2022-10-16T12:48:36;22.70;99.90
27667;DHT22;15074;50.940;5.282;2022-10-16T12:51:34;22.60;99.90
27667;DHT22;15074;50.940;5.282;2022-10-16T12:54:31;22.20;99.90
27667;DHT22;15074;50.940;5.282;2022-10-16T12:57:24;22.80;99.90
27667;DHT22;15074;50.940;5.282;2022-10-16T13:00:13;22.60;99.90
27667;DHT22;15074;50.940;5.282;2022-10-16T13:03:04;21.80;99.90
27667;DHT22;15074;50.940;5.282;2022-10-16T13:05:50;21.40;99.90
27667;DHT22;15074;50.940;5.282;2022-10-16T13:08:34;20.90;99.90
27667;DHT22;15074;50.940;5.282;2022-10-16T13:11:24;20.60;99.90
27667;DHT22;15074;50.940;5.282;2022-10-16T13:14:24;20.60;99.90
27667;DHT22;15074;50.940;5.282;2022-10-16T13:23:13;20.60;99.90
27667;DHT22;15074;50.940;5.282;2022-10-16T13:26:08;20.30;99.90
27667;DHT22;15074;50.940;5.282;2022-10-16T13:28:35;20.20;99.90
27667;DHT22;15074;50.940;5.282;2022-10-16T13:31:03;20.10;99.90
27667;DHT22;15074;50.940;5.282;2022-10-16T13:33:39;20.30;99.90
27667;DHT22;15074;50.940;5.282;2022-10-16T13:36:06;20.10;99.90
27667;DHT22;15074;50.940;5.282;2022-10-16T13:38:34;20.10;99.90
27667;DHT22;15074;50.940;5.282;2022-10-16T13:41:01;19.90;99.90
27667;DHT22;15074;50.940;5.282;2022-10-16T13:43:46;20.10;99.90
27667;DHT22;15074;50.940;5.282;2022-10-16T13:46:18;20.20;99.90
27667;DHT22;15074;50.940;5.282;2022-10-16T13:48:55;20.20;99.90
27667;DHT22;15074;50.940;5.282;2022-10-16T13:51:21;20.20;99.90
27667;DHT22;15074;50.940;5.282;2022-10-16T13:53:47;20.40;99.90
27667;DHT22;15074;50.940;5.282;2022-10-16T13:56:16;20.20;99.90
27667;DHT22;15074;50.940;5.282;2022-10-16T13:58:42;20.10;99.90
27667;DHT22;15074;50.940;5.282;2022-10-16T14:01:20;20.10;99.90
27667;DHT22;15074;50.940;5.282;2022-10-16T14:03:48;20.20;99.90
27667;DHT22;15074;50.940;5.282;2022-10-16T14:06:16;20.40;99.90
27667;DHT22;15074;50.940;5.282;2022-10-16T14:08:46;20.30;99.90
27667;DHT22;15074;50.940;5.282;2022-10-16T14:11:23;20.40;99.90
27667;DHT22;15074;50.940;5.282;2022-10-16T14:13:50;20.80;99.90
27667;DHT22;15074;50.940;5.282;2022-10-16T14:16:25;21.10;99.90
27667;DHT22;15074;50.940;5.282;2022-10-16T14:19:01;20.90;99.90
27667;DHT22;15074;50.940;5.282;2022-10-16T14:21:27;20.30;99.90
27667;DHT22;15074;50.940;5.282;2022-10-16T14:23:54;20.00;99.90
27667;DHT22;15074;50.940;5.282;2022-10-16T14:26:23;19.90;99.90
27667;DHT22;15074;50.940;5.282;2022-10-16T14:29:11;19.90;99.90
27667;DHT22;15074;50.940;5.282;2022-10-16T14:31:38;19.80;99.90
27667;DHT22;15074;50.940;5.282;2022-10-16T14:34:22;19.80;99.90
27667;DHT22;15074;50.940;5.282;2022-10-16T14:36:48;19.70;99.90
27667;DHT22;15074;50.940;5.282;2022-10-16T14:39:18;19.60;99.90
27667;DHT22;15074;50.940;5.282;2022-10-16T14:41:47;19.60;99.90
27667;DHT22;15074;50.940;5.282;2022-10-16T14:44:14;19.60;99.90
27667;DHT22;15074;50.940;5.282;2022-10-16T14:46:43;19.60;99.90
27667;DHT22;15074;50.940;5.282;2022-10-16T14:51:38;19.60;99.90
27667;DHT22;15074;50.940;5.282;2022-10-16T14:54:11;19.50;99.90
27667;DHT22;15074;50.940;5.282;2022-10-16T14:56:51;19.50;99.90
27667;DHT22;15074;50.940;5.282;2022-10-16T14:59:34;19.40;99.90
27667;DHT22;15074;50.940;5.282;2022-10-16T15:04:43;19.40;99.90
27667;DHT22;15074;50.940;5.282;2022-10-16T15:07:09;19.40;99.90
27667;DHT22;15074;50.940;5.282;2022-10-16T15:09:35;19.60;99.90
27667;DHT22;15074;50.940;5.282;2022-10-16T15:12:00;19.80;99.90
27667;DHT22;15074;50.940;5.282;2022-10-16T15:14:26;19.70;99.90
27667;DHT22;15074;50.940;5.282;2022-10-16T15:16:52;19.60;99.90
27667;DHT22;15074;50.940;5.282;2022-10-16T15:19:17;19.60;99.90
27667;DHT22;15074;50.940;5.282;2022-10-16T15:21:43;19.60;99.90
27667;DHT22;15074;50.940;5.282;2022-10-16T15:24:12;19.50;99.90
27667;DHT22;15074;50.940;5.282;2022-10-16T15:26:38;19.40;99.90
27667;DHT22;15074;50.940;5.282;2022-10-16T15:29:04;19.40;99.90
27667;DHT22;15074;50.940;5.282;2022-10-16T15:31:30;19.30;99.90
27667;DHT22;15074;50.940;5.282;2022-10-16T15:33:56;19.30;99.90
27667;DHT22;15074;50.940;5.282;2022-10-16T15:36:28;19.20;99.90
27667;DHT22;15074;50.940;5.282;2022-10-16T15:38:54;19.10;99.90
27667;DHT22;15074;50.940;5.282;2022-10-16T15:41:21;19.00;99.90
27667;DHT22;15074;50.940;5.282;2022-10-16T15:43:48;18.90;99.90
27667;DHT22;15074;50.940;5.282;2022-10-16T15:46:17;18.90;99.90
27667;DHT22;15074;50.940;5.282;2022-10-16T15:48:43;18.90;99.90
27667;DHT22;15074;50.940;5.282;2022-10-16T15:51:09;18.80;99.90
27667;DHT22;15074;50.940;5.282;2022-10-16T15:53:36;18.80;99.90
27667;DHT22;15074;50.940;5.282;2022-10-16T15:56:06;18.70;99.90
27667;DHT22;15074;50.940;5.282;2022-10-16T15:58:33;18.80;99.90
27667;DHT22;15074;50.940;5.282;2022-10-16T16:01:01;18.90;99.90
27667;DHT22;15074;50.940;5.282;2022-10-16T16:03:28;18.90;99.90
27667;DHT22;15074;50.940;5.282;2022-10-16T16:05:54;18.80;99.90
27667;DHT22;15074;50.940;5.282;2022-10-16T16:08:20;18.50;99.90
27667;DHT22;15074;50.940;5.282;2022-10-16T16:10:57;18.40;99.90
27667;DHT22;15074;50.940;5.282;2022-10-16T16:13:23;18.20;99.90
27667;DHT22;15074;50.940;5.282;2022-10-16T16:15:48;18.00;99.90
27667;DHT22;15074;50.940;5.282;2022-10-16T16:18:14;18.00;99.90
27667;DHT22;15074;50.940;5.282;2022-10-16T16:20:40;18.00;99.90
27667;DHT22;15074;50.940;5.282;2022-10-16T16:23:05;18.00;99.90
27667;DHT22;15074;50.940;5.282;2022-10-16T16:25:31;18.00;99.90
27667;DHT22;15074;50.940;5.282;2022-10-16T16:27:56;17.90;99.90
27667;DHT22;15074;50.940;5.282;2022-10-16T16:30:22;17.80;99.90
27667;DHT22;15074;50.940;5.282;2022-10-16T16:32:48;17.80;99.90
27667;DHT22;15074;50.940;5.282;2022-10-16T16:35:14;18.00;99.90
27667;DHT22;15074;50.940;5.282;2022-10-16T16:37:39;18.10;99.90
27667;DHT22;15074;50.940;5.282;2022-10-16T16:40:05;18.00;99.90
27667;DHT22;15074;50.940;5.282;2022-10-16T16:42:31;17.90;99.90
27667;DHT22;15074;50.940;5.282;2022-10-16T16:44:57;17.80;99.90
27667;DHT22;15074;50.940;5.282;2022-10-16T16:47:23;17.80;99.90
27667;DHT22;15074;50.940;5.282;2022-10-16T16:49:49;17.90;99.90
27667;DHT22;15074;50.940;5.282;2022-10-16T16:52:15;18.10;99.90
27667;DHT22;15074;50.940;5.282;2022-10-16T16:54:42;18.20;99.90
27667;DHT22;15074;50.940;5.282;2022-10-16T16:57:10;18.30;99.90
27667;DHT22;15074;50.940;5.282;2022-10-16T16:59:36;18.20;99.90
27667;DHT22;15074;50.940;5.282;2022-10-16T17:02:02;18.10;99.90
27667;DHT22;15074;50.940;5.282;2022-10-16T17:04:28;18.10;99.90
27667;DHT22;15074;50.940;5.282;2022-10-16T17:06:54;18.10;99.90
27667;DHT22;15074;50.940;5.282;2022-10-16T17:09:21;18.30;99.90
27667;DHT22;15074;50.940;5.282;2022-10-16T17:11:46;18.30;99.90
27667;DHT22;15074;50.940;5.282;2022-10-16T17:14:13;18.40;99.90
27667;DHT22;15074;50.940;5.282;2022-10-16T17:16:40;18.40;99.90
27667;DHT22;15074;50.940;5.282;2022-10-16T17:19:12;18.30;99.90
27667;DHT22;15074;50.940;5.282;2022-10-16T17:21:38;18.30;99.90
27667;DHT22;15074;50.940;5.282;2022-10-16T17:24:04;18.30;99.90
27667;DHT22;15074;50.940;5.282;2022-10-16T17:26:30;18.20;99.90
27667;DHT22;15074;50.940;5.282;2022-10-16T17:28:58;18.00;99.90
27667;DHT22;15074;50.940;5.282;2022-10-16T17:31:26;17.70;99.90
27667;DHT22;15074;50.940;5.282;2022-10-16T17:33:53;17.50;99.90
27667;DHT22;15074;50.940;5.282;2022-10-16T17:36:19;17.40;99.90
27667;DHT22;15074;50.940;5.282;2022-10-16T17:38:45;17.40;99.90
27667;DHT22;15074;50.940;5.282;2022-10-16T17:43:37;17.70;99.90